sensor_id;sensor_type;location;lat;lon;timestamp;P1;durP1;ratioP1;P2;durP2;ratioP2
18146;SDS011;9199;48.832;9.182;2024-01-11T00:01:38;43.28;;;18.83;;
18146;SDS011;9199;48.832;9.182;2024-01-11T00:04:06;39.92;;;18.63;;
18146;SDS011;9199;48.832;9.182;2024-01-11T00:06:32;42.97;;;18.20;;
18146;SDS011;9199;48.832;9.182;2024-01-11T00:08:59;43.75;;;18.13;;
18146;SDS011;9199;48.832;9.182;2024-01-11T00:11:26;46.30;;;19.60;;
18146;SDS011;9199;48.832;9.182;2024-01-11T00:13:52;45.42;;;20.10;;
18146;SDS011;9199;48.832;9.182;2024-01-11T00:16:19;41.25;;;19.70;;
18146;SDS011;9199;48.832;9.182;2024-01-11T00:18:46;46.27;;;19.17;;
18146;SDS011;9199;48.832;9.182;2024-01-11T00:21:14;43.30;;;18.75;;
18146;SDS011;9199;48.832;9.182;2024-01-11T00:23:41;49.63;;;18.98;;
18146;SDS011;9199;48.832;9.182;2024-01-11T00:26:07;43.83;;;19.58;;
18146;SDS011;9199;48.832;9.182;2024-01-11T00:28:34;49.22;;;20.48;;
18146;SDS011;9199;48.832;9.182;2024-01-11T00:31:01;42.60;;;19.77;;
18146;SDS011;9199;48.832;9.182;2024-01-11T00:33:27;45.13;;;19.00;;
18146;SDS011;9199;48.832;9.182;2024-01-11T00:35:54;46.88;;;20.02;;
18146;SDS011;9199;48.832;9.182;2024-01-11T00:38:22;41.80;;;18.55;;
18146;SDS011;9199;48.832;9.182;2024-01-11T00:40:49;42.13;;;18.80;;
18146;SDS011;9199;48.832;9.182;2024-01-11T00:43:15;45.40;;;20.13;;
18146;SDS011;9199;48.832;9.182;2024-01-11T00:45:43;40.65;;;17.95;;
18146;SDS011;9199;48.832;9.182;2024-01-11T00:48:11;45.83;;;19.23;;
18146;SDS011;9199;48.832;9.182;2024-01-11T00:50:37;43.53;;;18.45;;
18146;SDS011;9199;48.832;9.182;2024-01-11T00:53:04;45.10;;;18.80;;
18146;SDS011;9199;48.832;9.182;2024-01-11T00:55:32;40.07;;;17.93;;
18146;SDS011;9199;48.832;9.182;2024-01-11T00:57:59;44.03;;;18.35;;
18146;SDS011;9199;48.832;9.182;2024-01-11T01:00:26;44.30;;;19.58;;
18146;SDS011;9199;48.832;9.182;2024-01-11T01:02:53;43.03;;;18.40;;
18146;SDS011;9199;48.832;9.182;2024-01-11T01:05:20;45.53;;;19.85;;
18146;SDS011;9199;48.832;9.182;2024-01-11T01:07:46;43.63;;;18.67;;
18146;SDS011;9199;48.832;9.182;2024-01-11T01:10:13;42.13;;;18.73;;
18146;SDS011;9199;48.832;9.182;2024-01-11T01:12:41;44.22;;;19.67;;
18146;SDS011;9199;48.832;9.182;2024-01-11T01:15:08;43.58;;;18.50;;
18146;SDS011;9199;48.832;9.182;2024-01-11T01:17:34;41.60;;;19.02;;
18146;SDS011;9199;48.832;9.182;2024-01-11T01:20:01;44.90;;;18.17;;
18146;SDS011;9199;48.832;9.182;2024-01-11T01:22:28;46.15;;;18.92;;
18146;SDS011;9199;48.832;9.182;2024-01-11T01:24:55;39.60;;;18.42;;
18146;SDS011;9199;48.832;9.182;2024-01-11T01:27:22;43.30;;;19.13;;
18146;SDS011;9199;48.832;9.182;2024-01-11T01:29:50;39.58;;;18.10;;
18146;SDS011;9199;48.832;9.182;2024-01-11T01:32:17;44.83;;;18.33;;
18146;SDS011;9199;48.832;9.182;2024-01-11T01:34:44;48.00;;;18.95;;
18146;SDS011;9199;48.832;9.182;2024-01-11T01:37:11;47.28;;;20.23;;
18146;SDS011;9199;48.832;9.182;2024-01-11T01:39:38;42.38;;;19.45;;
18146;SDS011;9199;48.832;9.182;2024-01-11T01:42:04;43.78;;;18.90;;
18146;SDS011;9199;48.832;9.182;2024-01-11T01:44:31;41.67;;;19.40;;
18146;SDS011;9199;48.832;9.182;2024-01-11T01:47:00;46.83;;;19.25;;
18146;SDS011;9199;48.832;9.182;2024-01-11T01:49:28;51.33;;;20.90;;
18146;SDS011;9199;48.832;9.182;2024-01-11T01:51:55;46.08;;;19.35;;
18146;SDS011;9199;48.832;9.182;2024-01-11T01:54:22;48.25;;;20.42;;
18146;SDS011;9199;48.832;9.182;2024-01-11T01:56:49;47.23;;;18.93;;
18146;SDS011;9199;48.832;9.182;2024-01-11T01:59:17;44.78;;;20.42;;
18146;SDS011;9199;48.832;9.182;2024-01-11T02:01:45;49.13;;;20.77;;
18146;SDS011;9199;48.832;9.182;2024-01-11T02:04:13;44.80;;;19.08;;
18146;SDS011;9199;48.832;9.182;2024-01-11T02:06:40;47.85;;;20.13;;
18146;SDS011;9199;48.832;9.182;2024-01-11T02:09:08;44.10;;;19.13;;
18146;SDS011;9199;48.832;9.182;2024-01-11T02:11:36;43.10;;;18.98;;
18146;SDS011;9199;48.832;9.182;2024-01-11T02:14:04;46.53;;;19.02;;
18146;SDS011;9199;48.832;9.182;2024-01-11T02:16:31;42.80;;;18.42;;
18146;SDS011;9199;48.832;9.182;2024-01-11T02:18:58;40.28;;;18.50;;
18146;SDS011;9199;48.832;9.182;2024-01-11T02:21:26;41.47;;;18.33;;
18146;SDS011;9199;48.832;9.182;2024-01-11T02:24:00;45.60;;;18.05;;
18146;SDS011;9199;48.832;9.182;2024-01-11T02:26:29;44.85;;;19.17;;
18146;SDS011;9199;48.832;9.182;2024-01-11T02:28:55;39.72;;;18.98;;
18146;SDS011;9199;48.832;9.182;2024-01-11T02:31:22;46.58;;;19.25;;
18146;SDS011;9199;48.832;9.182;2024-01-11T02:33:50;45.10;;;19.07;;
18146;SDS011;9199;48.832;9.182;2024-01-11T02:36:18;46.28;;;19.48;;
18146;SDS011;9199;48.832;9.182;2024-01-11T02:38:45;43.10;;;19.55;;
18146;SDS011;9199;48.832;9.182;2024-01-11T02:41:14;44.83;;;20.40;;
18146;SDS011;9199;48.832;9.182;2024-01-11T02:43:45;46.92;;;19.23;;
18146;SDS011;9199;48.832;9.182;2024-01-11T02:46:13;42.53;;;18.43;;
18146;SDS011;9199;48.832;9.182;2024-01-11T02:48:40;42.95;;;18.70;;
18146;SDS011;9199;48.832;9.182;2024-01-11T02:51:06;41.85;;;18.40;;
18146;SDS011;9199;48.832;9.182;2024-01-11T02:53:33;43.72;;;19.05;;
18146;SDS011;9199;48.832;9.182;2024-01-11T02:56:00;46.88;;;19.77;;
18146;SDS011;9199;48.832;9.182;2024-01-11T02:58:28;47.03;;;18.83;;
18146;SDS011;9199;48.832;9.182;2024-01-11T03:00:54;43.10;;;19.27;;
18146;SDS011;9199;48.832;9.182;2024-01-11T03:03:21;46.58;;;20.23;;
18146;SDS011;9199;48.832;9.182;2024-01-11T03:05:48;47.20;;;18.77;;
18146;SDS011;9199;48.832;9.182;2024-01-11T03:08:14;46.83;;;20.30;;
18146;SDS011;9199;48.832;9.182;2024-01-11T03:10:41;45.23;;;20.03;;
18146;SDS011;9199;48.832;9.182;2024-01-11T03:13:08;46.55;;;19.83;;
18146;SDS011;9199;48.832;9.182;2024-01-11T03:15:36;47.90;;;19.70;;
18146;SDS011;9199;48.832;9.182;2024-01-11T03:18:03;48.15;;;20.15;;
18146;SDS011;9199;48.832;9.182;2024-01-11T03:20:30;45.75;;;18.98;;
18146;SDS011;9199;48.832;9.182;2024-01-11T03:22:57;44.90;;;18.90;;
18146;SDS011;9199;48.832;9.182;2024-01-11T03:25:23;46.67;;;19.08;;
18146;SDS011;9199;48.832;9.182;2024-01-11T03:27:50;47.15;;;19.60;;
18146;SDS011;9199;48.832;9.182;2024-01-11T03:30:17;46.58;;;19.52;;
18146;SDS011;9199;48.832;9.182;2024-01-11T03:32:45;46.67;;;19.23;;
18146;SDS011;9199;48.832;9.182;2024-01-11T03:35:12;48.53;;;20.03;;
18146;SDS011;9199;48.832;9.182;2024-01-11T03:37:38;44.80;;;19.25;;
18146;SDS011;9199;48.832;9.182;2024-01-11T03:40:05;44.50;;;19.40;;
18146;SDS011;9199;48.832;9.182;2024-01-11T03:42:33;44.85;;;20.20;;
18146;SDS011;9199;48.832;9.182;2024-01-11T03:44:59;43.05;;;18.70;;
18146;SDS011;9199;48.832;9.182;2024-01-11T03:47:26;42.77;;;19.00;;
18146;SDS011;9199;48.832;9.182;2024-01-11T03:49:54;47.20;;;19.50;;
18146;SDS011;9199;48.832;9.182;2024-01-11T03:52:21;44.55;;;19.52;;
18146;SDS011;9199;48.832;9.182;2024-01-11T03:54:48;47.53;;;20.30;;
18146;SDS011;9199;48.832;9.182;2024-01-11T03:57:15;44.97;;;18.65;;
18146;SDS011;9199;48.832;9.182;2024-01-11T03:59:42;42.60;;;17.87;;
18146;SDS011;9199;48.832;9.182;2024-01-11T04:02:10;47.17;;;19.10;;
18146;SDS011;9199;48.832;9.182;2024-01-11T04:04:36;42.33;;;18.60;;
18146;SDS011;9199;48.832;9.182;2024-01-11T04:07:05;46.95;;;19.52;;
18146;SDS011;9199;48.832;9.182;2024-01-11T04:09:31;42.00;;;18.67;;
18146;SDS011;9199;48.832;9.182;2024-01-11T04:11:58;47.03;;;19.83;;
18146;SDS011;9199;48.832;9.182;2024-01-11T04:14:25;47.80;;;19.50;;
18146;SDS011;9199;48.832;9.182;2024-01-11T04:16:51;45.80;;;19.42;;
18146;SDS011;9199;48.832;9.182;2024-01-11T04:19:18;45.05;;;18.90;;
18146;SDS011;9199;48.832;9.182;2024-01-11T04:21:46;48.67;;;19.10;;
18146;SDS011;9199;48.832;9.182;2024-01-11T04:24:14;46.70;;;19.73;;
18146;SDS011;9199;48.832;9.182;2024-01-11T04:26:40;42.63;;;18.85;;
18146;SDS011;9199;48.832;9.182;2024-01-11T04:29:07;47.08;;;19.25;;
18146;SDS011;9199;48.832;9.182;2024-01-11T04:31:34;45.50;;;18.73;;
18146;SDS011;9199;48.832;9.182;2024-01-11T04:34:00;44.25;;;19.17;;
18146;SDS011;9199;48.832;9.182;2024-01-11T04:36:27;45.20;;;19.77;;
18146;SDS011;9199;48.832;9.182;2024-01-11T04:38:54;42.35;;;19.52;;
18146;SDS011;9199;48.832;9.182;2024-01-11T04:41:22;44.25;;;19.83;;
18146;SDS011;9199;48.832;9.182;2024-01-11T04:43:48;47.03;;;18.88;;
18146;SDS011;9199;48.832;9.182;2024-01-11T04:46:15;41.92;;;18.35;;
18146;SDS011;9199;48.832;9.182;2024-01-11T04:48:43;45.27;;;19.10;;
18146;SDS011;9199;48.832;9.182;2024-01-11T04:51:10;46.05;;;18.45;;
18146;SDS011;9199;48.832;9.182;2024-01-11T04:53:37;50.85;;;20.13;;
18146;SDS011;9199;48.832;9.182;2024-01-11T04:56:05;42.63;;;18.13;;
18146;SDS011;9199;48.832;9.182;2024-01-11T04:58:34;48.38;;;19.88;;
18146;SDS011;9199;48.832;9.182;2024-01-11T05:01:03;44.90;;;18.70;;
18146;SDS011;9199;48.832;9.182;2024-01-11T05:03:31;43.20;;;18.85;;
18146;SDS011;9199;48.832;9.182;2024-01-11T05:05:58;49.65;;;20.30;;
18146;SDS011;9199;48.832;9.182;2024-01-11T05:08:25;50.10;;;20.02;;
18146;SDS011;9199;48.832;9.182;2024-01-11T05:10:52;46.05;;;18.27;;
18146;SDS011;9199;48.832;9.182;2024-01-11T05:13:19;44.10;;;18.43;;
18146;SDS011;9199;48.832;9.182;2024-01-11T05:15:47;47.20;;;19.65;;
18146;SDS011;9199;48.832;9.182;2024-01-11T05:18:14;48.05;;;19.10;;
18146;SDS011;9199;48.832;9.182;2024-01-11T05:20:41;50.30;;;20.20;;
18146;SDS011;9199;48.832;9.182;2024-01-11T05:23:07;49.13;;;19.95;;
18146;SDS011;9199;48.832;9.182;2024-01-11T05:25:34;47.07;;;19.87;;
18146;SDS011;9199;48.832;9.182;2024-01-11T05:28:01;42.78;;;18.85;;
18146;SDS011;9199;48.832;9.182;2024-01-11T05:30:29;45.88;;;19.05;;
18146;SDS011;9199;48.832;9.182;2024-01-11T05:32:57;44.85;;;19.10;;
18146;SDS011;9199;48.832;9.182;2024-01-11T05:35:24;46.67;;;20.42;;
18146;SDS011;9199;48.832;9.182;2024-01-11T05:37:52;48.50;;;19.83;;
18146;SDS011;9199;48.832;9.182;2024-01-11T05:40:19;47.42;;;19.83;;
18146;SDS011;9199;48.832;9.182;2024-01-11T05:42:47;44.67;;;18.98;;
18146;SDS011;9199;48.832;9.182;2024-01-11T05:45:14;48.97;;;19.10;;
18146;SDS011;9199;48.832;9.182;2024-01-11T05:47:41;47.28;;;19.95;;
18146;SDS011;9199;48.832;9.182;2024-01-11T05:50:10;46.13;;;19.97;;
18146;SDS011;9199;48.832;9.182;2024-01-11T05:52:37;45.90;;;20.05;;
18146;SDS011;9199;48.832;9.182;2024-01-11T05:55:04;43.78;;;18.27;;
18146;SDS011;9199;48.832;9.182;2024-01-11T05:57:31;50.20;;;19.92;;
18146;SDS011;9199;48.832;9.182;2024-01-11T05:59:57;46.78;;;20.25;;
18146;SDS011;9199;48.832;9.182;2024-01-11T06:02:24;46.57;;;20.03;;
18146;SDS011;9199;48.832;9.182;2024-01-11T06:04:51;45.65;;;20.23;;
18146;SDS011;9199;48.832;9.182;2024-01-11T06:07:19;54.17;;;22.63;;
18146;SDS011;9199;48.832;9.182;2024-01-11T06:09:45;46.50;;;21.35;;
18146;SDS011;9199;48.832;9.182;2024-01-11T06:12:12;46.95;;;19.33;;
18146;SDS011;9199;48.832;9.182;2024-01-11T06:14:39;44.77;;;19.43;;
18146;SDS011;9199;48.832;9.182;2024-01-11T06:17:06;49.30;;;19.50;;
18146;SDS011;9199;48.832;9.182;2024-01-11T06:19:35;44.08;;;18.52;;
18146;SDS011;9199;48.832;9.182;2024-01-11T06:22:02;47.08;;;19.45;;
18146;SDS011;9199;48.832;9.182;2024-01-11T06:24:31;43.88;;;19.25;;
18146;SDS011;9199;48.832;9.182;2024-01-11T06:26:58;41.97;;;19.43;;
18146;SDS011;9199;48.832;9.182;2024-01-11T06:29:24;44.45;;;19.38;;
18146;SDS011;9199;48.832;9.182;2024-01-11T06:31:51;44.45;;;18.80;;
18146;SDS011;9199;48.832;9.182;2024-01-11T06:34:18;51.40;;;21.20;;
18146;SDS011;9199;48.832;9.182;2024-01-11T06:36:45;50.50;;;20.38;;
18146;SDS011;9199;48.832;9.182;2024-01-11T06:39:11;47.27;;;20.00;;
18146;SDS011;9199;48.832;9.182;2024-01-11T06:41:40;49.83;;;20.95;;
18146;SDS011;9199;48.832;9.182;2024-01-11T06:44:06;46.45;;;19.17;;
18146;SDS011;9199;48.832;9.182;2024-01-11T06:46:33;46.95;;;19.90;;
18146;SDS011;9199;48.832;9.182;2024-01-11T06:49:01;52.70;;;20.33;;
18146;SDS011;9199;48.832;9.182;2024-01-11T06:51:28;46.17;;;19.90;;
18146;SDS011;9199;48.832;9.182;2024-01-11T06:53:55;48.67;;;20.40;;
18146;SDS011;9199;48.832;9.182;2024-01-11T06:56:21;49.83;;;20.65;;
18146;SDS011;9199;48.832;9.182;2024-01-11T06:58:50;49.97;;;20.02;;
18146;SDS011;9199;48.832;9.182;2024-01-11T07:01:17;44.80;;;19.73;;
18146;SDS011;9199;48.832;9.182;2024-01-11T07:03:44;49.93;;;20.47;;
18146;SDS011;9199;48.832;9.182;2024-01-11T07:06:11;46.83;;;20.02;;
18146;SDS011;9199;48.832;9.182;2024-01-11T07:08:38;50.97;;;20.77;;
18146;SDS011;9199;48.832;9.182;2024-01-11T07:11:04;45.40;;;20.08;;
18146;SDS011;9199;48.832;9.182;2024-01-11T07:13:32;46.60;;;19.77;;
18146;SDS011;9199;48.832;9.182;2024-01-11T07:16:00;48.27;;;19.57;;
18146;SDS011;9199;48.832;9.182;2024-01-11T07:18:28;48.80;;;19.88;;
18146;SDS011;9199;48.832;9.182;2024-01-11T07:20:55;50.50;;;20.52;;
18146;SDS011;9199;48.832;9.182;2024-01-11T07:23:23;59.35;;;21.25;;
18146;SDS011;9199;48.832;9.182;2024-01-11T07:25:50;59.30;;;22.25;;
18146;SDS011;9199;48.832;9.182;2024-01-11T07:28:16;51.13;;;19.77;;
18146;SDS011;9199;48.832;9.182;2024-01-11T07:30:44;47.75;;;20.05;;
18146;SDS011;9199;48.832;9.182;2024-01-11T07:33:13;48.17;;;20.45;;
18146;SDS011;9199;48.832;9.182;2024-01-11T07:35:40;44.47;;;19.23;;
18146;SDS011;9199;48.832;9.182;2024-01-11T07:38:06;46.72;;;20.30;;
18146;SDS011;9199;48.832;9.182;2024-01-11T07:40:33;47.80;;;21.70;;
18146;SDS011;9199;48.832;9.182;2024-01-11T07:43:00;50.10;;;21.42;;
18146;SDS011;9199;48.832;9.182;2024-01-11T07:45:28;47.58;;;20.83;;
18146;SDS011;9199;48.832;9.182;2024-01-11T07:47:56;49.67;;;20.88;;
18146;SDS011;9199;48.832;9.182;2024-01-11T07:50:24;50.80;;;21.25;;
18146;SDS011;9199;48.832;9.182;2024-01-11T07:52:50;49.57;;;22.10;;
18146;SDS011;9199;48.832;9.182;2024-01-11T07:55:17;55.42;;;20.17;;
18146;SDS011;9199;48.832;9.182;2024-01-11T07:57:48;48.67;;;21.45;;
18146;SDS011;9199;48.832;9.182;2024-01-11T08:00:16;49.80;;;21.73;;
18146;SDS011;9199;48.832;9.182;2024-01-11T08:02:43;50.03;;;21.23;;
18146;SDS011;9199;48.832;9.182;2024-01-11T08:05:09;45.87;;;20.17;;
18146;SDS011;9199;48.832;9.182;2024-01-11T08:07:37;49.33;;;21.08;;
18146;SDS011;9199;48.832;9.182;2024-01-11T08:10:04;47.25;;;21.45;;
18146;SDS011;9199;48.832;9.182;2024-01-11T08:12:34;50.65;;;22.20;;
18146;SDS011;9199;48.832;9.182;2024-01-11T08:15:00;55.20;;;22.50;;
18146;SDS011;9199;48.832;9.182;2024-01-11T08:17:27;56.37;;;22.50;;
18146;SDS011;9199;48.832;9.182;2024-01-11T08:19:54;52.50;;;22.67;;
18146;SDS011;9199;48.832;9.182;2024-01-11T08:22:21;50.05;;;22.02;;
18146;SDS011;9199;48.832;9.182;2024-01-11T08:24:49;55.60;;;22.58;;
18146;SDS011;9199;48.832;9.182;2024-01-11T08:27:16;48.70;;;22.10;;
18146;SDS011;9199;48.832;9.182;2024-01-11T08:29:43;53.13;;;22.30;;
18146;SDS011;9199;48.832;9.182;2024-01-11T08:32:11;52.10;;;22.23;;
18146;SDS011;9199;48.832;9.182;2024-01-11T08:34:38;52.83;;;22.50;;
18146;SDS011;9199;48.832;9.182;2024-01-11T08:37:05;54.72;;;22.23;;
18146;SDS011;9199;48.832;9.182;2024-01-11T08:39:32;52.75;;;22.27;;
18146;SDS011;9199;48.832;9.182;2024-01-11T08:42:00;48.27;;;22.33;;
18146;SDS011;9199;48.832;9.182;2024-01-11T08:44:27;49.35;;;21.10;;
18146;SDS011;9199;48.832;9.182;2024-01-11T08:46:55;45.60;;;20.67;;
18146;SDS011;9199;48.832;9.182;2024-01-11T08:49:22;46.75;;;21.00;;
18146;SDS011;9199;48.832;9.182;2024-01-11T08:51:49;45.15;;;20.90;;
18146;SDS011;9199;48.832;9.182;2024-01-11T08:54:16;48.77;;;20.67;;
18146;SDS011;9199;48.832;9.182;2024-01-11T08:56:45;47.65;;;20.55;;
18146;SDS011;9199;48.832;9.182;2024-01-11T08:59:13;42.20;;;19.75;;
18146;SDS011;9199;48.832;9.182;2024-01-11T09:01:40;42.53;;;19.98;;
18146;SDS011;9199;48.832;9.182;2024-01-11T09:04:07;41.88;;;20.42;;
18146;SDS011;9199;48.832;9.182;2024-01-11T09:06:34;46.03;;;20.83;;
18146;SDS011;9199;48.832;9.182;2024-01-11T09:09:01;46.05;;;20.65;;
18146;SDS011;9199;48.832;9.182;2024-01-11T09:11:27;43.30;;;19.75;;
18146;SDS011;9199;48.832;9.182;2024-01-11T09:13:54;41.45;;;18.98;;
18146;SDS011;9199;48.832;9.182;2024-01-11T09:16:23;46.35;;;21.10;;
18146;SDS011;9199;48.832;9.182;2024-01-11T09:18:50;42.60;;;20.13;;
18146;SDS011;9199;48.832;9.182;2024-01-11T09:21:17;42.50;;;20.25;;
18146;SDS011;9199;48.832;9.182;2024-01-11T09:23:43;41.97;;;20.52;;
18146;SDS011;9199;48.832;9.182;2024-01-11T09:26:10;40.97;;;20.77;;
18146;SDS011;9199;48.832;9.182;2024-01-11T09:28:38;43.00;;;21.25;;
18146;SDS011;9199;48.832;9.182;2024-01-11T09:31:05;38.70;;;19.73;;
18146;SDS011;9199;48.832;9.182;2024-01-11T09:33:33;44.35;;;20.98;;
18146;SDS011;9199;48.832;9.182;2024-01-11T09:35:59;42.65;;;21.10;;
18146;SDS011;9199;48.832;9.182;2024-01-11T09:38:26;42.08;;;20.67;;
18146;SDS011;9199;48.832;9.182;2024-01-11T09:40:54;37.45;;;20.25;;
18146;SDS011;9199;48.832;9.182;2024-01-11T09:43:32;41.13;;;20.70;;
18146;SDS011;9199;48.832;9.182;2024-01-11T09:45:59;42.05;;;20.15;;
18146;SDS011;9199;48.832;9.182;2024-01-11T09:48:28;40.20;;;20.58;;
18146;SDS011;9199;48.832;9.182;2024-01-11T09:50:58;43.45;;;21.27;;
18146;SDS011;9199;48.832;9.182;2024-01-11T09:53:27;41.97;;;21.70;;
18146;SDS011;9199;48.832;9.182;2024-01-11T09:55:54;40.47;;;20.93;;
18146;SDS011;9199;48.832;9.182;2024-01-11T09:58:22;37.15;;;20.25;;
18146;SDS011;9199;48.832;9.182;2024-01-11T10:00:49;40.65;;;21.75;;
18146;SDS011;9199;48.832;9.182;2024-01-11T10:03:21;39.78;;;21.60;;
18146;SDS011;9199;48.832;9.182;2024-01-11T10:05:49;37.38;;;21.30;;
18146;SDS011;9199;48.832;9.182;2024-01-11T10:08:18;39.97;;;21.57;;
18146;SDS011;9199;48.832;9.182;2024-01-11T10:10:45;41.03;;;21.80;;
18146;SDS011;9199;48.832;9.182;2024-01-11T10:13:11;39.40;;;22.08;;
18146;SDS011;9199;48.832;9.182;2024-01-11T10:15:38;40.08;;;21.83;;
18146;SDS011;9199;48.832;9.182;2024-01-11T10:18:05;42.28;;;22.58;;
18146;SDS011;9199;48.832;9.182;2024-01-11T10:20:32;43.97;;;22.80;;
18146;SDS011;9199;48.832;9.182;2024-01-11T10:22:59;41.65;;;21.27;;
18146;SDS011;9199;48.832;9.182;2024-01-11T10:25:27;39.85;;;22.13;;
18146;SDS011;9199;48.832;9.182;2024-01-11T10:27:55;42.60;;;22.02;;
18146;SDS011;9199;48.832;9.182;2024-01-11T10:30:22;42.75;;;21.15;;
18146;SDS011;9199;48.832;9.182;2024-01-11T10:32:50;39.70;;;22.00;;
18146;SDS011;9199;48.832;9.182;2024-01-11T10:35:17;44.17;;;21.55;;
18146;SDS011;9199;48.832;9.182;2024-01-11T10:37:44;41.53;;;22.23;;
18146;SDS011;9199;48.832;9.182;2024-01-11T10:40:11;40.40;;;21.92;;
18146;SDS011;9199;48.832;9.182;2024-01-11T10:42:41;37.90;;;21.38;;
18146;SDS011;9199;48.832;9.182;2024-01-11T10:45:10;40.57;;;22.30;;
18146;SDS011;9199;48.832;9.182;2024-01-11T10:47:42;37.83;;;21.42;;
18146;SDS011;9199;48.832;9.182;2024-01-11T10:50:17;41.15;;;23.30;;
18146;SDS011;9199;48.832;9.182;2024-01-11T10:52:47;39.97;;;21.75;;
18146;SDS011;9199;48.832;9.182;2024-01-11T10:55:22;40.20;;;21.75;;
18146;SDS011;9199;48.832;9.182;2024-01-11T10:57:52;41.20;;;22.50;;
18146;SDS011;9199;48.832;9.182;2024-01-11T11:00:19;41.72;;;22.70;;
18146;SDS011;9199;48.832;9.182;2024-01-11T11:02:47;37.22;;;22.60;;
18146;SDS011;9199;48.832;9.182;2024-01-11T11:05:16;40.65;;;22.23;;
18146;SDS011;9199;48.832;9.182;2024-01-11T11:07:46;39.75;;;22.65;;
18146;SDS011;9199;48.832;9.182;2024-01-11T11:10:13;43.40;;;24.63;;
18146;SDS011;9199;48.832;9.182;2024-01-11T11:12:40;43.42;;;23.45;;
18146;SDS011;9199;48.832;9.182;2024-01-11T11:15:12;39.97;;;22.33;;
18146;SDS011;9199;48.832;9.182;2024-01-11T11:17:39;39.08;;;21.95;;
18146;SDS011;9199;48.832;9.182;2024-01-11T11:20:07;41.55;;;21.75;;
18146;SDS011;9199;48.832;9.182;2024-01-11T11:22:36;41.47;;;22.30;;
18146;SDS011;9199;48.832;9.182;2024-01-11T11:25:06;44.65;;;22.40;;
18146;SDS011;9199;48.832;9.182;2024-01-11T11:27:34;45.20;;;22.90;;
18146;SDS011;9199;48.832;9.182;2024-01-11T11:30:02;45.85;;;23.25;;
18146;SDS011;9199;48.832;9.182;2024-01-11T11:32:38;44.63;;;23.17;;
18146;SDS011;9199;48.832;9.182;2024-01-11T11:35:09;47.73;;;23.43;;
18146;SDS011;9199;48.832;9.182;2024-01-11T11:37:36;45.92;;;22.00;;
18146;SDS011;9199;48.832;9.182;2024-01-11T11:40:04;45.53;;;22.48;;
18146;SDS011;9199;48.832;9.182;2024-01-11T11:42:31;49.35;;;23.92;;
18146;SDS011;9199;48.832;9.182;2024-01-11T11:44:59;49.63;;;23.58;;
18146;SDS011;9199;48.832;9.182;2024-01-11T11:47:32;48.73;;;22.53;;
18146;SDS011;9199;48.832;9.182;2024-01-11T11:50:06;44.22;;;23.25;;
18146;SDS011;9199;48.832;9.182;2024-01-11T11:52:34;46.03;;;23.83;;
18146;SDS011;9199;48.832;9.182;2024-01-11T11:55:03;46.90;;;23.20;;
18146;SDS011;9199;48.832;9.182;2024-01-11T11:57:33;47.88;;;23.35;;
18146;SDS011;9199;48.832;9.182;2024-01-11T12:00:00;45.80;;;23.00;;
18146;SDS011;9199;48.832;9.182;2024-01-11T12:02:30;47.35;;;22.08;;
18146;SDS011;9199;48.832;9.182;2024-01-11T12:04:57;45.17;;;22.65;;
18146;SDS011;9199;48.832;9.182;2024-01-11T12:07:26;42.95;;;21.33;;
18146;SDS011;9199;48.832;9.182;2024-01-11T12:09:53;42.38;;;21.25;;
18146;SDS011;9199;48.832;9.182;2024-01-11T12:12:20;44.27;;;22.03;;
18146;SDS011;9199;48.832;9.182;2024-01-11T12:14:47;43.63;;;20.98;;
18146;SDS011;9199;48.832;9.182;2024-01-11T12:17:14;43.20;;;22.58;;
18146;SDS011;9199;48.832;9.182;2024-01-11T12:19:41;44.42;;;21.65;;
18146;SDS011;9199;48.832;9.182;2024-01-11T12:22:08;43.42;;;21.65;;
18146;SDS011;9199;48.832;9.182;2024-01-11T12:24:36;45.20;;;21.73;;
18146;SDS011;9199;48.832;9.182;2024-01-11T12:27:03;46.03;;;22.42;;
18146;SDS011;9199;48.832;9.182;2024-01-11T12:29:30;44.13;;;23.33;;
18146;SDS011;9199;48.832;9.182;2024-01-11T12:31:58;48.70;;;22.33;;
18146;SDS011;9199;48.832;9.182;2024-01-11T12:34:25;44.25;;;21.77;;
18146;SDS011;9199;48.832;9.182;2024-01-11T12:36:54;45.50;;;22.93;;
18146;SDS011;9199;48.832;9.182;2024-01-11T12:39:25;38.92;;;20.35;;
18146;SDS011;9199;48.832;9.182;2024-01-11T12:41:54;42.28;;;21.33;;
18146;SDS011;9199;48.832;9.182;2024-01-11T12:44:22;40.45;;;21.15;;
18146;SDS011;9199;48.832;9.182;2024-01-11T12:46:49;41.05;;;22.58;;
18146;SDS011;9199;48.832;9.182;2024-01-11T12:49:17;42.57;;;21.93;;
18146;SDS011;9199;48.832;9.182;2024-01-11T12:51:44;38.35;;;22.33;;
18146;SDS011;9199;48.832;9.182;2024-01-11T12:54:11;37.75;;;22.80;;
18146;SDS011;9199;48.832;9.182;2024-01-11T12:56:42;43.05;;;23.60;;
18146;SDS011;9199;48.832;9.182;2024-01-11T12:59:11;41.20;;;23.08;;
18146;SDS011;9199;48.832;9.182;2024-01-11T13:01:41;42.10;;;21.80;;
18146;SDS011;9199;48.832;9.182;2024-01-11T13:04:07;41.55;;;22.98;;
18146;SDS011;9199;48.832;9.182;2024-01-11T13:06:35;48.72;;;25.13;;
18146;SDS011;9199;48.832;9.182;2024-01-11T13:09:02;45.58;;;23.30;;
18146;SDS011;9199;48.832;9.182;2024-01-11T13:11:29;38.40;;;21.48;;
18146;SDS011;9199;48.832;9.182;2024-01-11T13:13:56;41.83;;;22.77;;
18146;SDS011;9199;48.832;9.182;2024-01-11T13:16:27;37.88;;;21.48;;
18146;SDS011;9199;48.832;9.182;2024-01-11T13:18:54;44.42;;;23.17;;
18146;SDS011;9199;48.832;9.182;2024-01-11T13:21:21;42.50;;;22.48;;
18146;SDS011;9199;48.832;9.182;2024-01-11T13:23:48;37.88;;;21.52;;
18146;SDS011;9199;48.832;9.182;2024-01-11T13:26:14;35.50;;;21.47;;
18146;SDS011;9199;48.832;9.182;2024-01-11T13:28:41;40.20;;;22.63;;
18146;SDS011;9199;48.832;9.182;2024-01-11T13:31:08;36.88;;;22.58;;
18146;SDS011;9199;48.832;9.182;2024-01-11T13:33:37;42.00;;;22.92;;
18146;SDS011;9199;48.832;9.182;2024-01-11T13:36:05;41.50;;;22.10;;
18146;SDS011;9199;48.832;9.182;2024-01-11T13:38:33;40.67;;;22.07;;
18146;SDS011;9199;48.832;9.182;2024-01-11T13:41:00;38.85;;;21.90;;
18146;SDS011;9199;48.832;9.182;2024-01-11T13:43:27;45.33;;;23.20;;
18146;SDS011;9199;48.832;9.182;2024-01-11T13:45:54;44.30;;;23.23;;
18146;SDS011;9199;48.832;9.182;2024-01-11T13:48:20;42.58;;;23.73;;
18146;SDS011;9199;48.832;9.182;2024-01-11T13:50:48;43.30;;;24.20;;
18146;SDS011;9199;48.832;9.182;2024-01-11T13:53:15;40.17;;;22.65;;
18146;SDS011;9199;48.832;9.182;2024-01-11T13:55:42;41.40;;;23.73;;
18146;SDS011;9199;48.832;9.182;2024-01-11T13:58:08;45.17;;;23.50;;
18146;SDS011;9199;48.832;9.182;2024-01-11T14:00:37;43.38;;;23.77;;
18146;SDS011;9199;48.832;9.182;2024-01-11T14:03:04;41.60;;;22.53;;
18146;SDS011;9199;48.832;9.182;2024-01-11T14:05:31;41.53;;;23.85;;
18146;SDS011;9199;48.832;9.182;2024-01-11T14:07:59;44.42;;;23.70;;
18146;SDS011;9199;48.832;9.182;2024-01-11T14:10:29;41.92;;;21.88;;
18146;SDS011;9199;48.832;9.182;2024-01-11T14:12:55;45.50;;;24.00;;
18146;SDS011;9199;48.832;9.182;2024-01-11T14:15:22;45.90;;;23.53;;
18146;SDS011;9199;48.832;9.182;2024-01-11T14:17:49;47.15;;;23.40;;
18146;SDS011;9199;48.832;9.182;2024-01-11T14:20:16;45.78;;;24.02;;
18146;SDS011;9199;48.832;9.182;2024-01-11T14:22:44;46.40;;;23.05;;
18146;SDS011;9199;48.832;9.182;2024-01-11T14:25:15;42.80;;;22.75;;
18146;SDS011;9199;48.832;9.182;2024-01-11T14:27:42;43.03;;;22.67;;
18146;SDS011;9199;48.832;9.182;2024-01-11T14:30:10;44.83;;;21.70;;
18146;SDS011;9199;48.832;9.182;2024-01-11T14:32:38;41.33;;;21.15;;
18146;SDS011;9199;48.832;9.182;2024-01-11T14:35:06;42.33;;;21.98;;